Pierre, SD

10:40 PM CDT on September 04, 2015 (GMT -0500)
2 miles north of airport | | Change Station
CLOSE
Current Station
Personal Weather Station
Location: Pierre, SD
Elevation: 1818 ft
Nearby Weather Stations

Elev 1818 ft 44.41 °N, 100.30 °W | Updated 53 seconds ago

Partly Cloudy
Partly Cloudy
77.1 °F
Feels Like 79 °F
N
3.0
Wind Variable Wind from SE
Gusts 5.0 mph

Today
High -- | Low -- °F
--% Chance of Precip.
Yesterday
High -- | Low -- °F
Precip. -- in
7:06 AM 8:12 PM
Waning Gibbous, 53% visible
Pressure 29.72 in
Visibility 10.0 miles
Clouds Clear
Heat Index 79 °F
Dew Point 70 °F
Humidity 79%
Rainfall 0.05 in
Snow Depth Not available.
UV 0 out of 12
Pollen 9.80 out of 12
Air Quality Not available.
Flu Activity Not available.
METAR KPIR 050253Z AUTO 08007KT 10SM CLR 25/19 A2976 RMK AO2 SLP063 T02500189 53010
Pressure 29.72 in
Visibility 10.0 miles
Clouds Clear
Heat Index 79 °F
Dew Point 70 °F
Humidity 79%
Rainfall 0.05 in
Snow Depth Not available.
UV 0 out of 12
Pollen 9.80 out of 12
Air Quality Not available.
Flu Activity Not available.
METAR KPIR 050253Z AUTO 08007KT 10SM CLR 25/19 A2976 RMK AO2 SLP063 T02500189 53010

10-Day Weather Forecast

×

Almanac

Astronomy

Sep. 04, 2015 Rise Set
Actual Time
Civil Twilight
Nautical Twilight
Astronomical Twilight
Moon
Length of Visible Light
Length of Day
Tomorrow will be .
, % of the Moon is Illuminated

Today's Extremes

State Highs State Lows

Community

WunderPhotos

Upload Photos

1,852,408 photos uploaded!

WunderBlogs® & News

Nearby

Air Quality

  Air Quality AQ Index Pollutant
Not available.

Snow Depth

Station Depth Elevation

Earthquake Activity

City Distance Mag. Time & Date
Minimum magnitude displayed is 2.5.

Coastal Water Temperatures

Place Temperature

Stations

Nearby Weather Stations

Station Location Temp. Windchill Dew Point Humidity Wind Precip. Elev Updated Type